Spokane International, WA

4:59 AM PST on January 29, 2015 (GMT -0800)
Spokane International | Change Station
CLOSE
Current Station
Airport
Location: Spokane,
Elevation: 2365 ft
Nearby Weather Stations

Elev 2365 ft 47.62 °N, 117.53 °W | Updated 6 minutes ago

Fog
Fog
32 °F
Feels Like 25 °F
N
8
Wind Variable Wind from NE

Today
High -- | Low -- °F
--% Chance of Precip.
Yesterday
High -- | Low -- °F
Precip. -- in
7:20 AM 4:46 PM
Waxing Gibbous, 74% visible
Pressure 30.48 in
Visibility 0.1 miles
Clouds Overcast 200 ft
Windchill 25 °F
Dew Point 31 °F
Humidity 96%
Rainfall 0.00 in
Snow Depth Not available.
UV 0 out of 12
Pollen .90 out of 12
Air Quality Not available.
Flu Activity Not available.
METAR KGEG 291253Z 04007KT 1/8SM R03/1600FT FG OVC002 00/M01 A3042 RMK AO2 SFC VIS 1/4 SLP321 I1002 T00001006

More Conditions Fewer Conditions

Pressure 30.48 in
Visibility 0.1 miles
Clouds Overcast 200 ft
Windchill 25 °F
Dew Point 31 °F
Humidity 96%
Rainfall 0.00 in
Snow Depth Not available.
UV 0 out of 12
Pollen .90 out of 12
Air Quality Not available.
Flu Activity Not available.
METAR KGEG 291253Z 04007KT 1/8SM R03/1600FT FG OVC002 00/M01 A3042 RMK AO2 SFC VIS 1/4 SLP321 I1002 T00001006

More Conditions Fewer Conditions

Nowcast | as of 11:55 PM PST on January 28, 2015

Areas of fog will continue to impact many valley locations of northeast Washington and the northern Idaho Panhandle overnight. The fog is expected to be dense at times with temperatures near or just below freezing. The moisture from the fog combined with the cool temperatures will likely lead to some slick roadways. This will be especially true on lesser traveled secondary roads. Motorists can also expect rapid fluctuations in visibility down to a quarter of a mile in places including on i90 from Ritzville east to the Idaho-Montana border.

×

10-Day Weather Forecast

Almanac

Astronomy

Jan. 29, 2015 Rise Set
Actual Time
Civil Twilight
Nautical Twilight
Astronomical Twilight
Moon
Length of Visible Light
Length of Day
Tomorrow will be .
, % of the Moon is Illuminated

Today's Extremes

State Highs State Lows

Community

WunderPhotos

Upload Photos

1,791,420 photos uploaded!

WunderBlogs® & News

Nearby

Air Quality

  Air Quality AQ Index Pollutant
Not available.

Snow Depth

Station Depth Elevation

Earthquake Activity

City Distance Mag. Time & Date
Minimum magnitude displayed is 2.5.

Coastal Water Temperatures

Place Temperature

Nearby Weather Stations